createdAt,value
2022-08-17T00:00:34.492Z,68.80
2022-08-17T00:03:13.581Z,68.60
2022-08-17T00:05:55.713Z,68.50
2022-08-17T00:08:26.793Z,68.80
2022-08-17T00:10:55.031Z,68.80
2022-08-17T00:13:34.758Z,68.80
2022-08-17T00:16:10.100Z,68.80
2022-08-17T00:19:06.324Z,68.90
2022-08-17T00:21:25.446Z,68.70
2022-08-17T00:23:52.910Z,68.90
2022-08-17T00:26:44.576Z,68.80
2022-08-17T00:29:08.672Z,69.00
2022-08-17T00:31:36.256Z,69.00
2022-08-17T00:34:04.720Z,69.10
2022-08-17T00:36:32.011Z,69.00
2022-08-17T00:38:59.097Z,69.30
2022-08-17T00:41:27.703Z,69.10
2022-08-17T00:44:00.868Z,69.20
2022-08-17T00:46:33.164Z,69.30
2022-08-17T00:49:00.570Z,69.20
2022-08-17T00:51:47.867Z,69.10
2022-08-17T00:54:28.721Z,69.00
2022-08-17T00:57:18.983Z,69.00
2022-08-17T01:00:02.774Z,68.70
2022-08-17T01:02:41.720Z,68.60
2022-08-17T01:05:14.760Z,68.50
2022-08-17T01:07:42.844Z,68.60
2022-08-17T01:11:00.039Z,68.60
2022-08-17T01:13:00.422Z,68.70
2022-08-17T01:15:27.339Z,68.40
2022-08-17T01:17:54.237Z,68.50
2022-08-17T01:20:21.209Z,68.40
2022-08-17T01:22:48.175Z,68.50
2022-08-17T01:25:15.626Z,68.50
2022-08-17T01:27:43.565Z,68.50
2022-08-17T01:30:58.561Z,68.40
2022-08-17T01:32:59.280Z,68.40
2022-08-17T01:35:26.296Z,68.50
2022-08-17T01:37:53.332Z,68.40
2022-08-17T01:40:49.511Z,68.30
2022-08-17T01:43:34.613Z,68.30
2022-08-17T01:46:03.713Z,68.10
2022-08-17T01:48:33.920Z,68.20
2022-08-17T01:51:01.215Z,68.10
2022-08-17T01:53:34.365Z,68.10
2022-08-17T01:56:10.782Z,68.20
2022-08-17T01:58:38.154Z,68.20
2022-08-17T02:01:07.165Z,68.30
2022-08-17T02:03:35.676Z,68.10
2022-08-17T02:06:02.965Z,68.30
2022-08-17T02:08:38.857Z,68.20
2022-08-17T02:11:22.738Z,68.20
2022-08-17T02:13:55.019Z,68.20
2022-08-17T02:16:37.323Z,68.10
2022-08-17T02:19:10.783Z,67.90
2022-08-17T02:21:39.202Z,67.90
2022-08-17T02:24:08.816Z,67.90
2022-08-17T02:26:35.722Z,67.90
2022-08-17T02:29:04.131Z,68.00
2022-08-17T02:31:31.663Z,68.10
2022-08-17T02:34:03.821Z,67.90
2022-08-17T02:36:34.111Z,68.00
2022-08-17T02:39:10.127Z,67.80
2022-08-17T02:41:38.239Z,68.00
2022-08-17T02:44:06.042Z,67.90
2022-08-17T02:46:33.140Z,67.90
2022-08-17T02:49:00.179Z,67.70
2022-08-17T02:51:27.766Z,67.70
2022-08-17T02:54:38.786Z,67.10
2022-08-17T02:56:41.964Z,67.40
2022-08-17T02:59:08.906Z,67.20
2022-08-17T03:01:35.820Z,66.90
2022-08-17T03:04:04.847Z,66.80
2022-08-17T03:06:31.943Z,66.70
2022-08-17T03:08:58.915Z,66.70
2022-08-17T03:11:25.851Z,66.40
2022-08-17T03:13:52.753Z,66.30
2022-08-17T03:16:19.597Z,66.20
2022-08-17T03:18:46.512Z,66.20
2022-08-17T03:21:13.371Z,66.60
2022-08-17T03:23:42.183Z,66.30
2022-08-17T03:26:12.358Z,66.30
2022-08-17T03:28:42.733Z,66.30
2022-08-17T03:31:09.725Z,66.20
2022-08-17T03:33:36.715Z,66.20
2022-08-17T03:36:04.094Z,66.60
2022-08-17T03:38:38.906Z,66.60
2022-08-17T03:41:07.029Z,66.60
2022-08-17T03:43:34.828Z,66.90
2022-08-17T03:46:28.896Z,67.00
2022-08-17T03:49:23.976Z,67.00
2022-08-17T03:52:09.982Z,67.30
2022-08-17T03:54:55.891Z,67.30
2022-08-17T03:57:23.052Z,67.30
2022-08-17T03:59:51.424Z,67.40
2022-08-17T04:02:24.910Z,67.60
2022-08-17T04:04:52.457Z,67.80
2022-08-17T04:07:21.975Z,67.90
2022-08-17T04:09:49.246Z,68.20
2022-08-17T04:12:17.998Z,68.20
2022-08-17T04:14:52.930Z,68.00
2022-08-17T04:17:28.394Z,67.70
2022-08-17T04:19:56.135Z,67.50
2022-08-17T04:22:31.319Z,67.30
2022-08-17T04:25:06.603Z,67.20
2022-08-17T04:27:33.492Z,67.20
2022-08-17T04:30:00.864Z,67.30
2022-08-17T04:33:05.146Z,67.20
2022-08-17T04:35:22.637Z,67.00
2022-08-17T04:37:50.268Z,67.20
2022-08-17T04:40:37.626Z,67.20
2022-08-17T04:43:07.364Z,67.20
2022-08-17T04:45:38.640Z,66.90
2022-08-17T04:48:05.515Z,66.90
2022-08-17T04:50:35.330Z,66.90
2022-08-17T04:53:02.521Z,67.10
2022-08-17T04:55:29.454Z,67.30
2022-08-17T04:57:56.626Z,67.30
2022-08-17T05:00:25.822Z,67.30
2022-08-17T05:02:55.258Z,67.00
2022-08-17T05:05:26.476Z,67.30
2022-08-17T05:07:58.689Z,67.20
2022-08-17T05:10:28.026Z,67.40
2022-08-17T05:12:59.696Z,67.10
2022-08-17T05:15:27.824Z,66.90
2022-08-17T05:17:54.811Z,67.10
2022-08-17T05:20:22.896Z,66.80
2022-08-17T05:22:55.394Z,66.80
2022-08-17T05:25:25.720Z,66.90
2022-08-17T05:27:54.283Z,66.70
2022-08-17T05:30:22.313Z,67.70
2022-08-17T05:33:17.244Z,67.70
2022-08-17T05:35:47.241Z,68.00
2022-08-17T05:38:16.206Z,68.60
2022-08-17T05:40:44.232Z,68.50
2022-08-17T05:43:17.778Z,68.30
2022-08-17T05:46:03.715Z,68.60
2022-08-17T05:48:40.449Z,68.80
2022-08-17T05:51:26.099Z,69.10
2022-08-17T05:54:14.356Z,68.90
2022-08-17T05:56:44.031Z,69.10
2022-08-17T05:59:31.273Z,69.80
2022-08-17T06:02:29.542Z,69.80
2022-08-17T06:05:34.894Z,69.50
2022-08-17T06:08:20.092Z,69.90
2022-08-17T06:10:57.543Z,69.70
2022-08-17T06:13:43.264Z,70.10
2022-08-17T06:16:33.152Z,69.90
2022-08-17T06:19:30.587Z,69.90
2022-08-17T06:21:59.329Z,70.00
2022-08-17T06:24:42.080Z,70.20
2022-08-17T06:27:46.468Z,70.60
2022-08-17T06:30:13.319Z,70.50
2022-08-17T06:32:43.666Z,70.70
2022-08-17T06:35:17.029Z,70.70
2022-08-17T06:37:55.778Z,70.50
2022-08-17T06:40:51.034Z,70.50
2022-08-17T06:43:25.253Z,70.00
2022-08-17T06:46:11.504Z,69.70
2022-08-17T06:48:46.965Z,69.30
2022-08-17T06:51:19.751Z,69.60
2022-08-17T06:54:17.949Z,69.70
2022-08-17T06:57:17.958Z,68.80
2022-08-17T06:59:55.924Z,68.70
2022-08-17T07:02:52.332Z,68.40
2022-08-17T07:05:27.617Z,68.60
2022-08-17T07:08:03.677Z,68.50
2022-08-17T07:10:39.283Z,68.10
2022-08-17T07:13:31.799Z,68.10
2022-08-17T07:16:17.237Z,67.90
2022-08-17T07:18:44.816Z,67.50
2022-08-17T07:21:39.493Z,67.20
2022-08-17T07:24:06.540Z,66.80
2022-08-17T07:26:33.491Z,66.50
2022-08-17T07:29:02.383Z,66.30
2022-08-17T07:31:31.619Z,65.70
2022-08-17T07:34:08.674Z,65.40
2022-08-17T07:36:35.803Z,63.70
2022-08-17T07:39:04.148Z,63.30
2022-08-17T07:41:57.710Z,62.10
2022-08-17T07:44:26.573Z,59.20
2022-08-17T07:47:13.008Z,57.10
2022-08-17T07:49:46.508Z,56.70
2022-08-17T07:52:48.261Z,57.00
2022-08-17T07:55:34.998Z,57.30
2022-08-17T07:58:03.426Z,58.30
2022-08-17T08:00:32.284Z,58.60
2022-08-17T08:03:27.110Z,59.30
2022-08-17T08:06:02.214Z,59.70
2022-08-17T08:08:43.716Z,60.20
2022-08-17T08:11:15.464Z,60.60
2022-08-17T08:13:45.578Z,61.00
2022-08-17T08:16:13.318Z,60.60
2022-08-17T08:18:55.476Z,60.00
2022-08-17T08:21:35.509Z,60.00
2022-08-17T08:24:36.722Z,60.20
2022-08-17T08:27:09.618Z,59.90
2022-08-17T08:29:38.002Z,59.40
2022-08-17T08:32:26.352Z,59.50
2022-08-17T08:35:07.926Z,59.50
2022-08-17T08:37:49.968Z,59.90
2022-08-17T08:40:32.412Z,59.10
2022-08-17T08:43:13.730Z,58.70
2022-08-17T08:46:06.003Z,58.80
2022-08-17T08:49:06.545Z,58.40
2022-08-17T08:51:51.679Z,56.90
2022-08-17T08:54:43.412Z,54.90
2022-08-17T08:57:26.778Z,52.00
2022-08-17T09:00:01.966Z,50.20
2022-08-17T09:03:11.107Z,48.10
2022-08-17T09:06:00.345Z,44.60
2022-08-17T09:08:39.263Z,42.00
2022-08-17T09:12:01.133Z,41.50
2022-08-17T09:14:45.049Z,42.40
2022-08-17T09:17:30.343Z,40.60
2022-08-17T09:20:11.265Z,39.90
2022-08-17T09:23:08.050Z,40.30
2022-08-17T09:26:22.915Z,41.20
2022-08-17T09:28:53.168Z,41.10
2022-08-17T09:31:35.550Z,41.30
2022-08-17T09:34:35.172Z,41.00
2022-08-17T09:37:28.588Z,40.60
2022-08-17T09:40:17.554Z,40.40
2022-08-17T09:43:06.750Z,40.30
2022-08-17T09:45:45.288Z,41.20
2022-08-17T09:48:25.820Z,41.70
2022-08-17T09:51:13.151Z,41.20
2022-08-17T09:53:40.706Z,41.10
2022-08-17T09:57:11.802Z,40.90
2022-08-17T09:59:59.715Z,39.70
2022-08-17T10:03:09.703Z,39.10
2022-08-17T10:05:48.485Z,38.40
2022-08-17T10:09:08.805Z,38.60
2022-08-17T10:12:05.961Z,39.00
2022-08-17T10:15:07.976Z,39.30
2022-08-17T10:17:55.596Z,39.10
2022-08-17T10:20:25.550Z,39.50
2022-08-17T10:23:30.860Z,40.40
2022-08-17T10:26:14.991Z,41.10
2022-08-17T10:29:16.867Z,42.20
2022-08-17T10:31:52.009Z,42.00
2022-08-17T10:34:41.119Z,42.50
2022-08-17T10:37:29.545Z,42.70
2022-08-17T10:40:08.344Z,42.40
2022-08-17T10:42:57.502Z,42.70
2022-08-17T10:45:47.161Z,42.00
2022-08-17T10:48:36.639Z,41.60
2022-08-17T10:51:23.484Z,41.80
2022-08-17T10:53:51.362Z,41.90
2022-08-17T10:56:22.405Z,42.50
2022-08-17T10:58:58.139Z,42.90
2022-08-17T11:01:34.207Z,43.40
2022-08-17T11:04:11.260Z,43.60
2022-08-17T11:06:38.055Z,43.70
2022-08-17T11:09:24.172Z,43.60
2022-08-17T11:12:37.683Z,43.70
2022-08-17T11:15:21.789Z,43.50
2022-08-17T11:18:06.751Z,43.30
2022-08-17T11:20:45.558Z,43.60
2022-08-17T11:23:20.940Z,44.10
2022-08-17T11:26:04.197Z,44.30
2022-08-17T11:28:48.661Z,44.30
2022-08-17T11:31:37.935Z,44.40
2022-08-17T11:34:23.150Z,44.70
2022-08-17T11:37:17.051Z,44.60
2022-08-17T11:40:08.513Z,44.40
2022-08-17T11:42:41.868Z,44.10
2022-08-17T11:45:35.951Z,44.10
2022-08-17T11:48:36.339Z,44.10
2022-08-17T11:51:33.933Z,44.10
2022-08-17T11:54:32.339Z,43.60
2022-08-17T11:56:59.780Z,43.50
2022-08-17T11:59:59.081Z,43.10
2022-08-17T12:02:35.310Z,42.80
2022-08-17T12:05:12.411Z,42.60
2022-08-17T12:07:53.064Z,42.50
2022-08-17T12:10:31.656Z,42.00
2022-08-17T12:13:14.467Z,42.50
2022-08-17T12:15:50.408Z,42.80
2022-08-17T12:18:27.949Z,43.20
2022-08-17T12:21:15.804Z,43.20
2022-08-17T12:24:06.633Z,43.30
2022-08-17T12:26:36.005Z,43.40
2022-08-17T12:29:18.090Z,44.00
2022-08-17T12:32:04.204Z,43.40
2022-08-17T12:34:40.719Z,43.80
2022-08-17T12:37:27.486Z,44.00
2022-08-17T12:40:02.073Z,43.90
2022-08-17T12:42:33.134Z,44.10
2022-08-17T12:45:00.491Z,44.00
2022-08-17T12:47:30.073Z,44.20
2022-08-17T12:50:08.217Z,44.20
2022-08-17T12:52:59.637Z,44.50
2022-08-17T12:55:35.180Z,44.60
2022-08-17T12:58:02.576Z,44.90
2022-08-17T13:00:32.208Z,45.20
2022-08-17T13:03:03.404Z,44.80
2022-08-17T13:05:39.840Z,44.90
2022-08-17T13:08:17.625Z,45.30
2022-08-17T13:10:58.827Z,45.00
2022-08-17T13:13:28.431Z,45.20
2022-08-17T13:16:02.887Z,44.80
2022-08-17T13:18:29.747Z,45.00
2022-08-17T13:20:59.344Z,44.90
2022-08-17T13:23:29.415Z,45.30
2022-08-17T13:26:05.629Z,45.40
2022-08-17T13:28:36.278Z,45.10
2022-08-17T13:31:30.023Z,45.50
2022-08-17T13:34:19.166Z,45.60
2022-08-17T13:36:46.971Z,45.80
2022-08-17T13:39:18.816Z,45.90
2022-08-17T13:41:47.244Z,46.10
2022-08-17T13:44:37.751Z,46.10
2022-08-17T13:47:18.131Z,46.20
2022-08-17T13:49:48.672Z,46.40
2022-08-17T13:52:38.954Z,46.60
2022-08-17T13:55:18.906Z,46.30
2022-08-17T13:57:59.564Z,46.40
2022-08-17T14:00:36.500Z,46.50
2022-08-17T14:03:04.782Z,46.50
2022-08-17T14:05:32.484Z,45.90
2022-08-17T14:08:06.774Z,45.50
2022-08-17T14:10:36.489Z,45.50
2022-08-17T14:13:04.179Z,45.60
2022-08-17T14:15:54.627Z,45.40
2022-08-17T14:18:55.422Z,45.60
2022-08-17T14:21:08.437Z,45.80
2022-08-17T14:23:36.978Z,45.30
2022-08-17T14:26:04.210Z,44.60
2022-08-17T14:28:31.125Z,44.40
2022-08-17T14:31:00.778Z,44.40
2022-08-17T14:33:28.697Z,44.60
2022-08-17T14:35:57.536Z,44.60
2022-08-17T14:38:24.832Z,44.90
2022-08-17T14:40:51.983Z,44.90
2022-08-17T14:43:20.682Z,45.20
2022-08-17T14:45:47.647Z,45.00
2022-08-17T14:48:14.675Z,45.50
2022-08-17T14:50:43.851Z,45.50
2022-08-17T14:53:13.790Z,45.50
2022-08-17T14:55:40.725Z,45.60
2022-08-17T14:58:09.103Z,45.40
2022-08-17T15:00:36.838Z,45.30
2022-08-17T15:03:04.281Z,45.60
2022-08-17T15:05:36.666Z,45.70
2022-08-17T15:08:05.581Z,45.30
2022-08-17T15:10:33.259Z,45.30
2022-08-17T15:13:00.537Z,45.80
2022-08-17T15:15:28.497Z,45.60
2022-08-17T15:17:55.554Z,45.70
2022-08-17T15:20:28.211Z,45.40
2022-08-17T15:22:56.226Z,44.90
2022-08-17T15:25:26.023Z,45.10
2022-08-17T15:27:55.551Z,45.00
2022-08-17T15:30:22.519Z,45.00
2022-08-17T15:32:54.382Z,44.80
2022-08-17T15:35:29.176Z,44.60
2022-08-17T15:37:58.758Z,44.70
2022-08-17T15:40:36.622Z,44.50
2022-08-17T15:43:13.593Z,43.80
2022-08-17T15:45:40.534Z,44.00
2022-08-17T15:48:07.977Z,44.10
2022-08-17T15:50:35.686Z,43.50
2022-08-17T15:53:04.901Z,43.40
2022-08-17T15:55:32.740Z,43.50
2022-08-17T15:57:59.676Z,43.50
2022-08-17T16:00:29.194Z,43.90
2022-08-17T16:03:15.225Z,44.00
2022-08-17T16:05:46.755Z,43.90
2022-08-17T16:08:20.075Z,44.00
2022-08-17T16:10:48.856Z,43.90
2022-08-17T16:13:19.294Z,44.20
2022-08-17T16:15:56.617Z,43.80
2022-08-17T16:18:31.000Z,44.30
2022-08-17T16:21:23.154Z,44.50
2022-08-17T16:23:53.078Z,44.10
2022-08-17T16:26:20.049Z,44.40
2022-08-17T16:28:47.157Z,44.70
2022-08-17T16:31:14.741Z,45.10
2022-08-17T16:33:42.044Z,45.40
2022-08-17T16:36:09.394Z,45.50
2022-08-17T16:38:37.006Z,45.60
2022-08-17T16:41:04.788Z,45.70
2022-08-17T16:43:32.366Z,46.10
2022-08-17T16:46:00.912Z,45.70
2022-08-17T16:48:31.346Z,46.00
2022-08-17T16:51:03.394Z,45.90
2022-08-17T16:53:31.628Z,46.20
2022-08-17T16:55:58.599Z,46.20
2022-08-17T16:58:25.475Z,46.20
2022-08-17T17:00:52.428Z,46.40
2022-08-17T17:03:24.188Z,46.60
2022-08-17T17:06:18.571Z,46.90
2022-08-17T17:08:59.775Z,46.80
2022-08-17T17:11:33.588Z,46.60
2022-08-17T17:14:08.510Z,46.80
2022-08-17T17:16:53.866Z,46.80
2022-08-17T17:19:37.567Z,46.80
2022-08-17T17:22:10.294Z,47.20
2022-08-17T17:25:00.963Z,46.90
2022-08-17T17:27:39.476Z,46.90
2022-08-17T17:30:24.355Z,47.10
2022-08-17T17:33:09.146Z,47.30
2022-08-17T17:35:46.902Z,47.60
2022-08-17T17:38:23.780Z,47.60
2022-08-17T17:41:11.798Z,47.60
2022-08-17T17:43:40.926Z,47.80
2022-08-17T17:46:27.062Z,47.90
2022-08-17T17:48:57.070Z,48.10
2022-08-17T17:52:09.201Z,48.10
2022-08-17T17:54:46.178Z,48.50
2022-08-17T17:57:24.747Z,48.30
2022-08-17T18:00:30.479Z,48.60
2022-08-17T18:02:57.345Z,48.70
2022-08-17T18:05:48.667Z,48.90
2022-08-17T18:08:32.084Z,49.00
2022-08-17T18:11:11.446Z,49.00
2022-08-17T18:13:50.665Z,49.20
2022-08-17T18:16:19.222Z,49.40
2022-08-17T18:18:52.332Z,49.80
2022-08-17T18:21:27.594Z,49.80
2022-08-17T18:23:59.930Z,50.00
2022-08-17T18:26:50.254Z,50.10
2022-08-17T18:29:28.081Z,50.40
2022-08-17T18:32:31.208Z,50.60
2022-08-17T18:35:03.175Z,50.80
2022-08-17T18:37:35.208Z,51.10
2022-08-17T18:40:17.266Z,51.10
2022-08-17T18:42:46.981Z,51.40
2022-08-17T18:45:30.318Z,51.60
2022-08-17T18:47:57.992Z,51.70
2022-08-17T18:50:33.735Z,52.10
2022-08-17T18:53:21.559Z,52.30
2022-08-17T18:56:26.496Z,52.60
2022-08-17T18:59:13.516Z,53.00
2022-08-17T19:02:09.998Z,53.30
2022-08-17T19:04:55.933Z,53.40
2022-08-17T19:07:23.714Z,53.60
2022-08-17T19:10:09.241Z,53.70
2022-08-17T19:12:55.142Z,53.90
2022-08-17T19:15:33.476Z,54.00
2022-08-17T19:18:16.470Z,54.10
2022-08-17T19:20:55.073Z,54.30
2022-08-17T19:23:37.203Z,54.40
2022-08-17T19:26:50.945Z,54.70
2022-08-17T19:29:03.840Z,54.70
2022-08-17T19:31:32.412Z,55.00
2022-08-17T19:34:01.604Z,55.20
2022-08-17T19:36:58.594Z,55.00
2022-08-17T19:39:38.359Z,55.20
2022-08-17T19:42:11.486Z,55.40
2022-08-17T19:44:47.234Z,55.50
2022-08-17T19:47:54.337Z,55.80
2022-08-17T19:50:39.107Z,55.80
2022-08-17T19:53:14.633Z,56.00
2022-08-17T19:55:51.067Z,56.40
2022-08-17T19:58:47.461Z,56.50
2022-08-17T20:01:22.471Z,56.80
2022-08-17T20:04:19.628Z,56.90
2022-08-17T20:06:52.942Z,57.20
2022-08-17T20:09:42.888Z,57.10
2022-08-17T20:12:16.394Z,57.40
2022-08-17T20:14:53.574Z,57.30
2022-08-17T20:17:29.615Z,57.50
2022-08-17T20:20:39.473Z,57.60
2022-08-17T20:23:25.738Z,57.70
2022-08-17T20:26:23.449Z,57.90
2022-08-17T20:29:10.243Z,58.00
2022-08-17T20:31:55.280Z,58.00
2022-08-17T20:34:36.792Z,58.00
2022-08-17T20:37:13.048Z,58.30
2022-08-17T20:39:43.912Z,58.50
2022-08-17T20:42:32.452Z,58.60
2022-08-17T20:45:19.268Z,58.80
2022-08-17T20:48:15.197Z,59.00
2022-08-17T20:50:43.608Z,59.00
2022-08-17T20:53:13.532Z,59.00
2022-08-17T20:55:52.233Z,59.30
2022-08-17T20:58:30.947Z,59.40
2022-08-17T21:00:58.977Z,59.60
2022-08-17T21:03:50.390Z,59.70
2022-08-17T21:06:18.216Z,59.80
2022-08-17T21:09:17.485Z,59.90
2022-08-17T21:12:05.618Z,60.30
2022-08-17T21:14:44.033Z,60.50
2022-08-17T21:17:34.628Z,60.60
2022-08-17T21:20:11.860Z,60.90
2022-08-17T21:23:06.002Z,61.00
2022-08-17T21:25:51.684Z,61.20
2022-08-17T21:28:34.568Z,61.20
2022-08-17T21:31:09.218Z,61.30
2022-08-17T21:33:39.572Z,61.60
2022-08-17T21:36:12.495Z,61.50
2022-08-17T21:38:48.861Z,61.70
2022-08-17T21:41:20.585Z,61.80
2022-08-17T21:43:51.023Z,62.00
2022-08-17T21:46:37.046Z,62.00
2022-08-17T21:49:13.815Z,62.20
2022-08-17T21:51:46.930Z,62.20
2022-08-17T21:54:29.915Z,62.20
2022-08-17T21:56:58.161Z,62.30
2022-08-17T21:59:28.231Z,62.40
2022-08-17T22:01:59.710Z,62.40
2022-08-17T22:04:33.042Z,62.50
2022-08-17T22:07:02.688Z,62.70
2022-08-17T22:09:33.039Z,62.80
2022-08-17T22:12:05.769Z,62.80
2022-08-17T22:14:51.853Z,62.80
2022-08-17T22:17:27.855Z,63.00
2022-08-17T22:20:17.927Z,63.10
2022-08-17T22:23:09.237Z,63.30
2022-08-17T22:25:55.907Z,63.30
2022-08-17T22:28:49.263Z,63.40
2022-08-17T22:31:25.164Z,63.40
2022-08-17T22:34:12.454Z,63.50
2022-08-17T22:36:41.836Z,63.80
2022-08-17T22:39:08.658Z,63.90
2022-08-17T22:41:41.262Z,64.00
2022-08-17T22:44:09.323Z,63.90
2022-08-17T22:46:41.134Z,64.10
2022-08-17T22:49:08.170Z,64.10
2022-08-17T22:51:35.867Z,64.00
2022-08-17T22:54:45.498Z,64.00
2022-08-17T22:57:33.440Z,64.40
2022-08-17T23:00:01.232Z,64.50
2022-08-17T23:02:33.557Z,64.80
2022-08-17T23:05:16.771Z,65.20
2022-08-17T23:07:45.613Z,64.80
2022-08-17T23:10:14.163Z,65.00
2022-08-17T23:12:41.368Z,65.00
2022-08-17T23:15:15.118Z,65.30
2022-08-17T23:17:42.394Z,65.50
2022-08-17T23:20:13.819Z,65.70
2022-08-17T23:22:51.939Z,65.60
2022-08-17T23:25:28.881Z,65.80
2022-08-17T23:27:58.474Z,66.00
2022-08-17T23:30:28.484Z,66.10
2022-08-17T23:32:56.606Z,66.30
2022-08-17T23:35:39.737Z,66.20
2022-08-17T23:38:10.056Z,66.30
2022-08-17T23:40:39.504Z,66.30
2022-08-17T23:43:24.471Z,66.30
2022-08-17T23:45:57.981Z,66.50
2022-08-17T23:48:35.678Z,66.40
2022-08-17T23:51:09.108Z,66.50
2022-08-17T23:53:37.185Z,66.60
2022-08-17T23:56:10.375Z,66.60
2022-08-17T23:58:39.339Z,66.90
